Terminal Aerodrome Forecast
Issued by NWS Wakefield, VA

Home | Current Version | Previous Version | Text Only | Print | Product List | Glossary On
Versions: 1 2 3 4 5 6 7 8 9 10 11 12 13 14 15 16 17 18
000
FTUS41 KAKQ 170500
TAFORF
TAF
KORF 170538Z 1706/1806 06011G16KT P6SM SKC
     FM170900 06012G18KT P6SM SCT035
     FM171200 06014G21KT P6SM BKN030
     FM171500 06015G22KT P6SM BKN030
     FM180000 05013KT P6SM SCT030=

USA.gov is the U.S. government's official web portal to all federal, state and local government web resources and services.